createdAt,value
2018-09-10T00:00:47.568Z,1.93
2018-09-10T00:03:50.836Z,1.83
2018-09-10T00:06:54.148Z,2.40
2018-09-10T00:09:57.290Z,1.90
2018-09-10T00:13:01.670Z,1.60
2018-09-10T00:16:04.955Z,1.90
2018-09-10T00:19:08.151Z,1.87
2018-09-10T00:22:11.504Z,2.20
2018-09-10T00:25:15.809Z,2.00
2018-09-10T00:28:19.084Z,1.93
2018-09-10T00:31:23.429Z,1.73
2018-09-10T00:34:26.703Z,1.83
2018-09-10T00:37:30.025Z,2.37
2018-09-10T00:40:33.420Z,1.80
2018-09-10T00:43:36.687Z,1.80
2018-09-10T00:46:40.099Z,1.80
2018-09-10T00:49:44.552Z,1.93
2018-09-10T00:52:47.684Z,2.20
2018-09-10T00:55:50.911Z,1.80
2018-09-10T00:58:54.283Z,2.20
2018-09-10T01:01:57.487Z,1.60
2018-09-10T01:05:00.751Z,1.90
2018-09-10T01:08:04.106Z,1.87
2018-09-10T01:11:07.243Z,2.10
2018-09-10T01:14:10.479Z,2.10
2018-09-10T01:17:14.848Z,1.50
2018-09-10T01:20:18.163Z,1.90
2018-09-10T01:23:21.524Z,1.97
2018-09-10T01:26:24.864Z,1.87
2018-09-10T01:29:28.093Z,2.00
2018-09-10T01:32:31.400Z,1.87
2018-09-10T01:35:34.684Z,2.00
2018-09-10T01:38:37.916Z,1.90
2018-09-10T01:41:41.183Z,2.10
2018-09-10T01:44:44.868Z,2.10
2018-09-10T01:47:48.060Z,1.63
2018-09-10T01:50:51.405Z,2.17
2018-09-10T01:53:54.669Z,2.17
2018-09-10T01:56:57.969Z,2.00
2018-09-10T02:00:01.239Z,1.90
2018-09-10T02:03:04.544Z,1.90
2018-09-10T02:06:07.795Z,1.80
2018-09-10T02:09:11.052Z,1.93
2018-09-10T02:12:19.817Z,2.10
2018-09-10T02:15:23.095Z,2.17
2018-09-10T02:18:26.470Z,2.00
2018-09-10T02:21:29.785Z,2.17
2018-09-10T02:24:32.987Z,1.93
2018-09-10T02:27:36.255Z,1.67
2018-09-10T02:30:39.482Z,1.90
2018-09-10T02:33:42.792Z,1.93
2018-09-10T02:36:47.007Z,2.20
2018-09-10T02:39:51.351Z,1.97
2018-09-10T02:42:54.769Z,2.00
2018-09-10T02:45:57.992Z,1.73
2018-09-10T02:49:01.209Z,2.10
2018-09-10T02:52:04.661Z,2.27
2018-09-10T02:55:08.959Z,2.50
2018-09-10T02:58:12.232Z,2.90
2018-09-10T03:01:16.588Z,3.50
2018-09-10T03:04:19.835Z,3.77
2018-09-10T03:07:23.147Z,3.50
2018-09-10T03:10:26.291Z,3.47
2018-09-10T03:13:29.633Z,3.30
2018-09-10T03:16:32.944Z,2.93
2018-09-10T03:19:36.275Z,2.87
2018-09-10T03:22:39.528Z,2.63
2018-09-10T03:25:42.704Z,3.10
2018-09-10T03:28:46.151Z,3.53
2018-09-10T03:31:49.400Z,3.97
2018-09-10T03:34:53.820Z,5.10
2018-09-10T03:37:57.042Z,6.30
2018-09-10T03:41:00.338Z,7.00
2018-09-10T03:44:03.615Z,7.73
2018-09-10T03:47:07.184Z,8.50
2018-09-10T03:50:10.428Z,10.20
2018-09-10T03:53:13.726Z,12.43
2018-09-10T03:56:18.058Z,15.17
2018-09-10T03:59:21.383Z,16.57
2018-09-10T04:02:24.639Z,19.23
2018-09-10T04:05:27.970Z,21.07
2018-09-10T04:08:31.240Z,22.10
2018-09-10T04:11:34.657Z,18.63
2018-09-10T04:14:37.987Z,16.07
2018-09-10T04:17:41.288Z,14.13
2018-09-10T04:20:45.074Z,11.03
2018-09-10T04:23:48.478Z,9.03
2018-09-10T04:26:51.997Z,7.00
2018-09-10T04:29:56.276Z,5.97
2018-09-10T04:32:59.456Z,5.03
2018-09-10T04:36:02.849Z,4.77
2018-09-10T04:39:07.547Z,5.03
2018-09-10T04:42:10.936Z,4.27
2018-09-10T04:45:14.220Z,4.30
2018-09-10T04:48:17.600Z,4.10
2018-09-10T04:51:21.370Z,3.93
2018-09-10T04:54:28.278Z,7.20
2018-09-10T04:57:31.551Z,12.37
2018-09-10T05:00:34.871Z,14.50
2018-09-10T05:03:38.051Z,16.83
2018-09-10T05:06:41.362Z,18.07
2018-09-10T05:09:44.544Z,22.10
2018-09-10T05:12:48.023Z,24.17
2018-09-10T05:15:51.254Z,24.13
2018-09-10T05:18:54.490Z,21.80
2018-09-10T05:21:57.901Z,19.10
2018-09-10T05:25:01.190Z,18.27
2018-09-10T05:28:04.499Z,18.43
2018-09-10T05:31:07.774Z,17.80
2018-09-10T05:34:11.084Z,18.50
2018-09-10T05:37:14.525Z,18.27
2018-09-10T05:40:17.994Z,19.07
2018-09-10T05:43:21.273Z,16.70
2018-09-10T05:46:24.572Z,16.77
2018-09-10T05:49:27.765Z,15.20
2018-09-10T05:52:31.079Z,13.57
2018-09-10T05:55:34.375Z,12.83
2018-09-10T05:58:37.755Z,11.43
2018-09-10T06:01:41.127Z,10.23
2018-09-10T06:04:44.649Z,9.37
2018-09-10T06:07:49.687Z,8.90
2018-09-10T06:10:52.988Z,7.60
2018-09-10T06:13:56.263Z,7.40
2018-09-10T06:16:59.674Z,6.80
2018-09-10T06:20:02.959Z,5.93
2018-09-10T06:23:06.291Z,4.80
2018-09-10T06:26:09.799Z,3.87
2018-09-10T06:29:13.078Z,4.30
2018-09-10T06:32:17.759Z,3.60
2018-09-10T06:35:21.003Z,3.97
2018-09-10T06:38:24.434Z,3.70
2018-09-10T06:41:27.681Z,3.87
2018-09-10T06:44:30.908Z,3.90
2018-09-10T06:47:34.284Z,3.60
2018-09-10T06:50:37.554Z,3.43
2018-09-10T06:53:40.739Z,3.30
2018-09-10T06:56:44.095Z,3.40
2018-09-10T06:59:48.656Z,3.20
2018-09-10T07:02:52.121Z,3.33
2018-09-10T07:05:55.367Z,3.07
2018-09-10T07:08:58.583Z,2.87
2018-09-10T07:12:01.912Z,3.07
2018-09-10T07:15:05.429Z,3.30
2018-09-10T07:18:08.717Z,3.37
2018-09-10T07:21:12.023Z,3.20
2018-09-10T07:24:15.516Z,3.30
2018-09-10T07:27:19.867Z,3.23
2018-09-10T07:30:23.083Z,3.00
2018-09-10T07:33:26.324Z,3.07
2018-09-10T07:36:29.621Z,3.10
2018-09-10T07:39:32.889Z,3.10
2018-09-10T07:42:36.104Z,3.07
2018-09-10T07:45:39.389Z,3.70
2018-09-10T07:48:42.692Z,3.30
2018-09-10T07:51:46.985Z,3.27
2018-09-10T07:54:50.228Z,4.13
2018-09-10T07:57:53.471Z,3.67
2018-09-10T08:00:56.705Z,3.67
2018-09-10T08:04:00.013Z,3.10
2018-09-10T08:07:03.290Z,3.87
2018-09-10T08:10:06.648Z,3.67
2018-09-10T08:13:09.859Z,3.57
2018-09-10T08:16:13.152Z,2.77
2018-09-10T08:19:17.326Z,2.90
2018-09-10T08:22:20.615Z,2.90
2018-09-10T08:25:23.810Z,2.80
2018-09-10T08:28:27.084Z,2.83
2018-09-10T08:31:30.390Z,2.70
2018-09-10T08:34:33.661Z,2.70
2018-09-10T08:37:36.875Z,2.60
2018-09-10T08:40:40.146Z,2.87
2018-09-10T08:43:43.466Z,2.70
2018-09-10T08:46:48.626Z,2.43
2018-09-10T08:49:51.946Z,2.60
2018-09-10T08:52:55.102Z,2.60
2018-09-10T08:55:58.502Z,2.37
2018-09-10T08:59:01.708Z,2.30
2018-09-10T09:02:04.997Z,2.63
2018-09-10T09:05:08.303Z,2.23
2018-09-10T09:08:11.607Z,2.70
2018-09-10T09:11:14.909Z,2.53
2018-09-10T09:14:19.311Z,2.43
2018-09-10T09:17:22.647Z,2.80
2018-09-10T09:20:25.824Z,3.50
2018-09-10T09:23:29.294Z,2.60
2018-09-10T09:26:32.506Z,2.30
2018-09-10T09:29:35.849Z,2.87
2018-09-10T09:32:41.119Z,2.90
2018-09-10T09:35:49.685Z,2.70
2018-09-10T09:38:59.383Z,2.60
2018-09-10T09:42:08.127Z,2.83
2018-09-10T09:45:17.708Z,2.60
2018-09-10T09:48:21.104Z,2.60
2018-09-10T09:51:24.427Z,2.43
2018-09-10T09:54:27.678Z,2.40
2018-09-10T09:57:31.220Z,2.40
2018-09-10T10:00:40.205Z,2.40
2018-09-10T10:03:48.858Z,2.77
2018-09-10T10:06:52.252Z,2.57
2018-09-10T10:09:57.831Z,2.60
2018-09-10T10:13:01.487Z,2.53
2018-09-10T10:16:04.812Z,2.10
2018-09-10T10:19:08.107Z,2.40
2018-09-10T10:22:11.438Z,2.20
2018-09-10T10:25:14.620Z,2.47
2018-09-10T10:28:18.621Z,2.13
2018-09-10T10:31:21.888Z,2.10
2018-09-10T10:34:25.158Z,2.20
2018-09-10T10:37:28.383Z,2.07
2018-09-10T10:40:31.850Z,2.50
2018-09-10T10:43:35.936Z,2.20
2018-09-10T10:46:40.676Z,2.10
2018-09-10T10:49:43.904Z,2.00
2018-09-10T10:52:47.256Z,1.90
2018-09-10T10:55:50.813Z,2.10
2018-09-10T10:58:54.027Z,2.10
2018-09-10T11:01:57.404Z,1.87
2018-09-10T11:05:00.593Z,1.83
2018-09-10T11:08:04.835Z,1.90
2018-09-10T11:11:07.997Z,1.83
2018-09-10T11:14:12.253Z,1.80
2018-09-10T11:17:15.595Z,2.20
2018-09-10T11:20:19.978Z,1.83
2018-09-10T11:23:23.337Z,2.10
2018-09-10T11:26:26.462Z,1.80
2018-09-10T11:29:29.780Z,1.87
2018-09-10T11:32:33.116Z,1.70
2018-09-10T11:35:36.455Z,1.63
2018-09-10T11:38:40.089Z,1.87
2018-09-10T11:41:43.391Z,1.90
2018-09-10T11:44:46.656Z,1.60
2018-09-10T11:47:49.951Z,1.70
2018-09-10T11:50:53.357Z,2.03
2018-09-10T11:53:57.714Z,1.70
2018-09-10T11:57:00.944Z,1.90
2018-09-10T12:00:08.370Z,1.90
2018-09-10T12:03:11.639Z,1.60
2018-09-10T12:06:14.830Z,1.80
2018-09-10T12:09:18.155Z,1.80
2018-09-10T12:12:21.399Z,1.70
2018-09-10T12:15:24.779Z,1.93
2018-09-10T12:18:29.321Z,1.93
2018-09-10T12:21:32.754Z,1.60
2018-09-10T12:24:36.204Z,1.97
2018-09-10T12:27:39.623Z,1.60
2018-09-10T12:30:43.028Z,1.83
2018-09-10T12:33:46.404Z,2.20
2018-09-10T12:36:50.810Z,1.90
2018-09-10T12:39:54.160Z,2.10
2018-09-10T12:42:58.089Z,1.80
2018-09-10T12:46:01.433Z,2.00
2018-09-10T12:49:04.657Z,1.70
2018-09-10T12:52:07.964Z,1.90
2018-09-10T12:55:11.329Z,1.90
2018-09-10T12:58:14.606Z,2.00
2018-09-10T13:01:17.887Z,1.80
2018-09-10T13:04:21.171Z,1.87
2018-09-10T13:07:24.387Z,1.70
2018-09-10T13:10:28.247Z,1.70
2018-09-10T13:13:31.484Z,1.47
2018-09-10T13:16:34.756Z,1.70
2018-09-10T13:19:37.986Z,1.70
2018-09-10T13:22:41.630Z,1.60
2018-09-10T13:25:44.887Z,1.73
2018-09-10T13:28:49.100Z,1.80
2018-09-10T13:31:52.448Z,1.60
2018-09-10T13:34:55.812Z,1.20
2018-09-10T13:37:59.117Z,1.37
2018-09-10T13:41:02.499Z,1.40
2018-09-10T13:44:05.737Z,1.37
2018-09-10T13:47:09.328Z,1.43
2018-09-10T13:50:12.653Z,1.70
2018-09-10T13:53:15.921Z,1.50
2018-09-10T13:56:20.304Z,1.60
2018-09-10T13:59:23.538Z,1.53
2018-09-10T14:02:26.836Z,1.70
2018-09-10T14:05:31.175Z,1.63
2018-09-10T14:08:34.565Z,1.43
2018-09-10T14:11:38.269Z,1.70
2018-09-10T14:14:41.550Z,1.73
2018-09-10T14:17:44.734Z,1.53
2018-09-10T14:20:48.546Z,1.60
2018-09-10T14:23:51.787Z,1.60
2018-09-10T14:26:55.084Z,2.00
2018-09-10T14:29:58.419Z,2.00
2018-09-10T14:33:01.743Z,1.60
2018-09-10T14:36:05.068Z,1.70
2018-09-10T14:39:08.975Z,1.57
2018-09-10T14:42:12.293Z,2.53
2018-09-10T14:45:15.565Z,2.00
2018-09-10T14:48:19.500Z,1.80
2018-09-10T14:51:22.895Z,1.60
2018-09-10T14:54:26.135Z,1.70
2018-09-10T14:57:29.342Z,1.60
2018-09-10T15:00:32.648Z,2.13
2018-09-10T15:03:35.910Z,2.47
2018-09-10T15:06:40.165Z,1.70
2018-09-10T15:09:43.409Z,1.80
2018-09-10T15:12:48.730Z,2.10
2018-09-10T15:15:52.031Z,1.77
2018-09-10T15:18:55.526Z,1.50
2018-09-10T15:21:58.931Z,1.70
2018-09-10T15:25:04.279Z,1.80
2018-09-10T15:28:07.568Z,1.63
2018-09-10T15:31:10.847Z,1.90
2018-09-10T15:34:14.155Z,1.70
2018-09-10T15:37:17.607Z,1.70
2018-09-10T15:40:21.997Z,1.97
2018-09-10T15:43:25.276Z,1.60
2018-09-10T15:46:28.573Z,1.53
2018-09-10T15:49:31.922Z,1.50
2018-09-10T15:52:35.319Z,1.67
2018-09-10T15:55:38.826Z,1.60
2018-09-10T15:58:43.087Z,1.50
2018-09-10T16:01:46.391Z,1.90
2018-09-10T16:04:49.825Z,1.60
2018-09-10T16:07:53.094Z,1.67
2018-09-10T16:10:56.296Z,1.47
2018-09-10T16:13:59.571Z,1.77
2018-09-10T16:17:02.936Z,1.57
2018-09-10T16:20:06.705Z,1.83
2018-09-10T16:23:10.154Z,1.47
2018-09-10T16:26:13.469Z,1.60
2018-09-10T16:29:16.696Z,1.60
2018-09-10T16:32:20.904Z,1.40
2018-09-10T16:35:24.397Z,1.53
2018-09-10T16:38:27.575Z,1.50
2018-09-10T16:41:30.946Z,1.40
2018-09-10T16:44:35.240Z,1.37
2018-09-10T16:47:38.527Z,1.30
2018-09-10T16:50:41.994Z,1.87
2018-09-10T16:53:45.387Z,1.77
2018-09-10T16:56:49.224Z,1.50
2018-09-10T16:59:53.636Z,1.60
2018-09-10T17:02:57.007Z,1.73
2018-09-10T17:06:00.371Z,1.80
2018-09-10T17:09:06.327Z,1.80
2018-09-10T17:12:09.613Z,1.57
2018-09-10T17:15:12.786Z,1.90
2018-09-10T17:18:16.086Z,2.00
2018-09-10T17:21:20.592Z,1.87
2018-09-10T17:24:23.901Z,2.20
2018-09-10T17:27:27.084Z,2.00
2018-09-10T17:30:30.592Z,1.80
2018-09-10T17:33:33.786Z,2.00
2018-09-10T17:36:37.284Z,2.27
2018-09-10T17:39:40.590Z,2.17
2018-09-10T17:42:43.746Z,1.73
2018-09-10T17:45:46.970Z,2.00
2018-09-10T17:48:51.144Z,2.37
2018-09-10T17:51:54.548Z,2.10
2018-09-10T17:54:57.679Z,2.00
2018-09-10T17:58:02.105Z,1.90
2018-09-10T18:01:07.367Z,1.93
2018-09-10T18:04:10.732Z,2.07
2018-09-10T18:07:14.121Z,1.97
2018-09-10T18:10:17.459Z,2.03
2018-09-10T18:13:20.942Z,2.40
2018-09-10T18:16:24.157Z,2.40
2018-09-10T18:19:27.667Z,2.33
2018-09-10T18:22:31.049Z,2.30
2018-09-10T18:25:34.292Z,2.53
2018-09-10T18:28:37.860Z,1.80
2018-09-10T18:31:41.220Z,2.33
2018-09-10T18:34:44.517Z,2.07
2018-09-10T18:37:47.865Z,2.13
2018-09-10T18:40:51.160Z,2.60
2018-09-10T18:43:55.205Z,3.10
2018-09-10T18:46:58.983Z,3.50
2018-09-10T18:50:02.321Z,2.27
2018-09-10T18:53:06.753Z,2.10
2018-09-10T18:56:10.363Z,3.03
2018-09-10T18:59:13.763Z,3.30
2018-09-10T19:02:16.943Z,2.20
2018-09-10T19:05:20.293Z,2.00
2018-09-10T19:08:23.629Z,2.57
2018-09-10T19:11:27.032Z,2.53
2018-09-10T19:14:31.372Z,2.23
2018-09-10T19:17:35.365Z,2.00
2018-09-10T19:20:38.812Z,2.20
2018-09-10T19:23:42.007Z,2.40
2018-09-10T19:26:45.365Z,2.40
2018-09-10T19:29:48.988Z,2.80
2018-09-10T19:32:52.231Z,2.40
2018-09-10T19:35:55.576Z,2.30
2018-09-10T19:38:58.904Z,2.27
2018-09-10T19:42:02.115Z,2.37
2018-09-10T19:45:06.315Z,2.60
2018-09-10T19:48:09.598Z,2.60
2018-09-10T19:51:12.915Z,2.53
2018-09-10T19:54:16.239Z,2.30
2018-09-10T19:57:19.538Z,2.40
2018-09-10T20:00:22.807Z,2.53
2018-09-10T20:03:26.222Z,2.40
2018-09-10T20:06:29.555Z,2.50
2018-09-10T20:09:32.845Z,2.53
2018-09-10T20:12:36.648Z,3.00
2018-09-10T20:15:40.008Z,2.97
2018-09-10T20:18:43.279Z,3.10
2018-09-10T20:21:46.627Z,3.37
2018-09-10T20:24:49.796Z,3.00
2018-09-10T20:27:52.995Z,3.30
2018-09-10T20:30:56.338Z,3.30
2018-09-10T20:34:04.703Z,3.13
2018-09-10T20:37:08.380Z,2.80
2018-09-10T20:40:11.739Z,3.30
2018-09-10T20:43:15.035Z,3.10
2018-09-10T20:46:18.318Z,3.20
2018-09-10T20:49:21.607Z,3.20
2018-09-10T20:52:24.752Z,3.20
2018-09-10T20:55:28.101Z,3.23
2018-09-10T20:58:31.317Z,3.00
2018-09-10T21:01:34.541Z,2.70
2018-09-10T21:04:38.847Z,3.00
2018-09-10T21:07:42.211Z,2.97
2018-09-10T21:10:45.257Z,2.77
2018-09-10T21:13:48.583Z,2.67
2018-09-10T21:16:51.821Z,2.97
2018-09-10T21:19:55.122Z,2.83
2018-09-10T21:22:58.416Z,3.00
2018-09-10T21:26:01.633Z,2.60
2018-09-10T21:29:04.901Z,3.07
2018-09-10T21:32:09.611Z,2.90
2018-09-10T21:35:12.939Z,2.97
2018-09-10T21:38:16.225Z,3.27
2018-09-10T21:41:19.414Z,2.63
2018-09-10T21:44:22.723Z,2.80
2018-09-10T21:47:26.080Z,2.93
2018-09-10T21:50:29.403Z,2.80
2018-09-10T21:53:32.750Z,2.87
2018-09-10T21:56:36.455Z,2.90
2018-09-10T21:59:39.860Z,3.40
2018-09-10T22:02:43.111Z,3.00
2018-09-10T22:05:49.938Z,3.33
2018-09-10T22:08:53.384Z,3.30
2018-09-10T22:12:03.172Z,3.43
2018-09-10T22:15:07.192Z,3.20
2018-09-10T22:18:10.891Z,3.47
2018-09-10T22:21:14.184Z,3.10
2018-09-10T22:24:17.596Z,2.83
2018-09-10T22:27:20.867Z,3.10
2018-09-10T22:30:24.158Z,3.37
2018-09-10T22:33:27.444Z,3.20
2018-09-10T22:36:30.651Z,3.37
2018-09-10T22:39:33.935Z,3.30
2018-09-10T22:42:38.052Z,3.10
2018-09-10T22:45:41.277Z,2.93
2018-09-10T22:48:44.548Z,2.87
2018-09-10T22:51:47.851Z,3.33
2018-09-10T22:54:51.103Z,3.00
2018-09-10T22:57:54.475Z,3.40
2018-09-10T23:00:57.744Z,3.17
2018-09-10T23:04:00.939Z,3.10
2018-09-10T23:07:04.235Z,2.70
2018-09-10T23:10:08.500Z,3.27
2018-09-10T23:13:11.877Z,3.43
2018-09-10T23:16:15.175Z,2.97
2018-09-10T23:19:18.450Z,3.13
2018-09-10T23:22:21.760Z,3.07
2018-09-10T23:25:25.172Z,3.47
2018-09-10T23:28:28.444Z,3.57
2018-09-10T23:31:31.738Z,3.43
2018-09-10T23:34:34.961Z,3.00
2018-09-10T23:37:38.875Z,3.07
2018-09-10T23:40:42.287Z,3.07
2018-09-10T23:43:46.595Z,3.10
2018-09-10T23:46:49.862Z,2.70
2018-09-10T23:49:53.163Z,3.30
2018-09-10T23:52:56.326Z,3.50
2018-09-10T23:55:59.657Z,3.57
2018-09-10T23:59:02.857Z,3.40
